Time;durP1;ratioP1;P1;durP2;ratioP2;P2;SDS_P1;SDS_P2;PMS_P1;PMS_P2;Temp;Humidity;BMP_temperature;BMP_pressure;BME280_temperature;BME280_humidity;BME280_pressure;Samples;Min_cycle;Max_cycle;Signal;HPM_P1;HPM_P2
2022/02/11 00:07:38;;;;;;;7.55;4.80;;;4.10;71.80;;;;;;5047795;28;20041;-53
2022/02/11 00:10:07;;;;;;;8.23;4.40;;;4.00;71.30;;;;;;5039225;28;20033;-53
2022/02/11 00:12:33;;;;;;;8.98;4.60;;;4.00;71.40;;;;;;5038362;28;20018;-54
2022/02/11 00:17:31;;;;;;;6.43;4.22;;;4.00;72.00;;;;;;5038283;28;20018;-52
2022/02/11 00:19:57;;;;;;;8.13;3.92;;;4.00;71.30;;;;;;5038119;28;20117;-50
2022/02/11 00:22:23;;;;;;;7.35;4.20;;;3.90;71.40;;;;;;5038191;28;20473;-54
2022/02/11 00:24:51;;;;;;;8.07;4.05;;;3.90;71.50;;;;;;5038272;28;20041;-54
2022/02/11 00:32:33;;;;;;;6.28;3.63;;;3.80;71.50;;;;;;5038032;28;20022;-55
2022/02/11 00:35:09;;;;;;;6.80;3.53;;;3.90;71.60;;;;;;5038182;28;20036;-53
2022/02/11 00:37:39;;;;;;;7.03;4.22;;;3.80;71.70;;;;;;5038062;28;20080;-52
2022/02/11 00:41:20;;;;;;;6.07;3.55;;;3.80;71.60;;;;;;5037925;28;20022;-54
2022/02/11 01:02:12;;;;;;;7.60;4.05;;;3.70;72.00;;;;;;5046678;28;20037;-52
2022/02/11 01:04:38;;;;;;;7.10;3.72;;;3.70;71.70;;;;;;5037580;28;20033;-50
2022/02/11 01:07:04;;;;;;;7.88;3.75;;;3.70;71.20;;;;;;5037706;28;20018;-52
2022/02/11 01:09:32;;;;;;;7.68;3.78;;;3.70;71.30;;;;;;5037557;28;20079;-55
2022/02/11 01:12:01;;;;;;;8.50;4.00;;;3.70;71.50;;;;;;5037402;28;20397;-51
2022/02/11 01:14:39;;;;;;;7.55;3.95;;;3.70;71.50;;;;;;5037764;28;20034;-53
2022/02/11 01:20:07;;;;;;;6.72;3.80;;;3.60;72.60;;;;;;5038231;28;20066;-50
2022/02/11 02:13:21;;;;;;;;;;;3.40;71.60;;;;;;5041598;28;20029;-54
2022/02/11 02:16:19;;;;;;;9.15;3.80;;;3.50;71.20;;;;;;5040474;28;19905;-52
2022/02/11 02:24:56;;;;;;;8.55;4.13;;;3.30;71.50;;;;;;5040194;28;20034;-50
2022/02/11 04:56:18;;;;;;;6.82;3.63;;;2.40;71.10;;;;;;5037449;28;20470;-52
2022/02/11 05:01:28;;;;;;;7.43;3.63;;;2.30;71.00;;;;;;5037960;28;20032;-51
2022/02/11 05:03:54;;;;;;;5.97;3.20;;;2.30;70.90;;;;;;5037515;28;20042;-51
2022/02/11 05:06:22;;;;;;;6.95;3.50;;;2.30;71.70;;;;;;5036228;28;20026;-50
2022/02/11 05:08:48;;;;;;;6.00;3.33;;;2.30;71.30;;;;;;5037782;28;20021;-51
2022/02/11 05:11:13;;;;;;;6.97;3.42;;;2.30;70.70;;;;;;5037535;28;20025;-52
2022/02/11 05:13:39;;;;;;;6.15;3.25;;;2.20;71.40;;;;;;5037774;28;20121;-53
2022/02/11 05:16:05;;;;;;;6.78;3.40;;;2.20;71.10;;;;;;5037541;28;20022;-49
2022/02/11 05:18:31;;;;;;;7.97;3.85;;;2.30;71.30;;;;;;5037729;28;20033;-49
2022/02/11 05:20:57;;;;;;;7.10;3.80;;;2.20;71.90;;;;;;5037273;28;20053;-54
2022/02/11 05:23:23;;;;;;;6.95;4.07;;;2.20;71.60;;;;;;5037687;28;20071;-50
2022/02/11 05:25:50;;;;;;;5.68;3.25;;;2.10;71.20;;;;;;5037806;28;20033;-51
2022/02/11 05:28:16;;;;;;;7.80;3.45;;;2.10;70.90;;;;;;5037400;28;20490;-52
2022/02/11 05:30:43;;;;;;;9.00;3.58;;;2.10;71.50;;;;;;5037283;28;20025;-52
2022/02/11 05:33:09;;;;;;;6.55;3.42;;;2.10;71.20;;;;;;5037580;28;20025;-52
2022/02/11 05:35:36;;;;;;;5.95;3.55;;;2.10;71.00;;;;;;5037436;28;20021;-53
2022/02/11 05:38:01;;;;;;;6.20;3.70;;;2.10;71.20;;;;;;5037291;28;20473;-51
2022/02/11 05:40:28;;;;;;;7.47;3.25;;;2.10;71.20;;;;;;5037094;28;20021;-52
2022/02/11 05:42:54;;;;;;;6.00;3.20;;;2.10;71.90;;;;;;5037500;28;20029;-53
2022/02/11 05:45:20;;;;;;;5.57;3.35;;;2.10;71.60;;;;;;5037293;28;20048;-50
2022/02/11 05:47:46;;;;;;;7.75;3.22;;;2.10;72.00;;;;;;5036007;28;20029;-53
2022/02/11 05:50:11;;;;;;;6.55;2.80;;;2.10;71.90;;;;;;5037244;28;20017;-51
2022/02/11 05:52:38;;;;;;;5.53;2.90;;;2.10;72.30;;;;;;5037169;28;20026;-54
2022/02/11 05:55:04;;;;;;;4.70;2.60;;;2.10;72.10;;;;;;5037462;28;20077;-49
2022/02/11 05:57:30;;;;;;;8.23;3.05;;;2.10;72.30;;;;;;5037147;28;20124;-53
2022/02/11 05:59:56;;;;;;;5.80;2.70;;;2.10;72.00;;;;;;5037382;28;20079;-50
2022/02/11 06:02:22;;;;;;;5.75;3.03;;;2.20;72.00;;;;;;5037339;28;20366;-53
2022/02/11 06:04:48;;;;;;;6.30;3.10;;;2.20;72.80;;;;;;5037497;28;20044;-52
2022/02/11 06:07:15;;;;;;;4.95;2.92;;;2.20;72.70;;;;;;5039982;28;20021;-52
2022/02/11 06:09:41;;;;;;;4.93;2.78;;;2.30;72.80;;;;;;5040791;28;20100;-51
2022/02/11 06:12:07;;;;;;;7.53;3.50;;;2.30;72.50;;;;;;5041050;28;20052;-52
2022/02/11 06:14:38;;;;;;;7.07;2.72;;;2.30;72.70;;;;;;5040903;28;20041;-50
2022/02/11 06:17:07;;;;;;;6.70;3.00;;;2.40;72.30;;;;;;5040812;28;20366;-52
2022/02/11 06:19:33;;;;;;;6.70;3.42;;;2.40;72.30;;;;;;5041017;28;20021;-54
2022/02/11 06:21:58;;;;;;;6.57;2.53;;;2.40;72.50;;;;;;5040352;28;20060;-49
2022/02/11 06:24:24;;;;;;;5.93;2.67;;;2.40;72.10;;;;;;5040621;28;20033;-50
2022/02/11 06:26:50;;;;;;;5.20;2.75;;;2.40;71.60;;;;;;5040231;28;20045;-51
2022/02/11 06:29:16;;;;;;;7.15;2.75;;;2.30;71.80;;;;;;5040741;28;20025;-49
2022/02/11 06:31:42;;;;;;;10.43;2.45;;;2.30;72.00;;;;;;5040396;28;20049;-50
2022/02/11 06:34:07;;;;;;;4.97;2.60;;;2.30;72.00;;;;;;5040509;28;20033;-54
2022/02/11 06:36:34;;;;;;;5.78;2.30;;;2.30;72.10;;;;;;5040268;28;20025;-49
2022/02/11 06:39:00;;;;;;;8.35;3.03;;;2.30;72.00;;;;;;5040127;28;20029;-51
2022/02/11 06:41:26;;;;;;;6.93;2.92;;;2.30;72.10;;;;;;5040129;28;20032;-51
2022/02/11 06:43:52;;;;;;;5.90;2.70;;;2.30;71.40;;;;;;5040297;28;20030;-53
2022/02/11 06:46:20;;;;;;;6.78;2.88;;;2.30;71.90;;;;;;5040232;28;20071;-52
2022/02/11 06:48:47;;;;;;;5.30;2.83;;;2.20;72.60;;;;;;5039987;28;20563;-50
2022/02/11 06:51:13;;;;;;;6.85;2.72;;;2.20;72.30;;;;;;5039797;28;20030;-51
2022/02/11 06:53:39;;;;;;;5.45;2.42;;;2.20;71.90;;;;;;5039911;28;20032;-53
2022/02/11 06:56:04;;;;;;;4.07;2.47;;;2.20;72.10;;;;;;5039643;28;20079;-51
2022/02/11 06:58:30;;;;;;;6.80;2.63;;;2.20;72.10;;;;;;5040023;28;20022;-51
2022/02/11 07:00:56;;;;;;;6.72;2.55;;;2.20;72.20;;;;;;5039951;28;20029;-49
2022/02/11 07:03:23;;;;;;;4.85;2.47;;;2.10;71.90;;;;;;5039738;28;20026;-53
2022/02/11 07:05:51;;;;;;;6.03;2.50;;;2.20;71.70;;;;;;5039707;28;20029;-50
2022/02/11 07:08:18;;;;;;;7.07;2.50;;;2.10;71.80;;;;;;5039817;28;20079;-50
2022/02/11 07:10:44;;;;;;;8.75;3.00;;;2.10;72.20;;;;;;5039793;28;20028;-49
2022/02/11 07:13:13;;;;;;;9.68;3.25;;;2.00;73.10;;;;;;5039608;28;20028;-52
2022/02/11 07:15:42;;;;;;;6.40;3.13;;;2.10;72.10;;;;;;5039306;28;20104;-51
2022/02/11 07:18:09;;;;;;;7.65;3.38;;;2.10;71.90;;;;;;5038428;28;20021;-53
2022/02/11 07:20:35;;;;;;;4.20;2.30;;;2.00;72.40;;;;;;5039377;28;20055;-51
2022/02/11 07:23:01;;;;;;;6.55;2.85;;;2.00;72.70;;;;;;5039535;28;20136;-53
2022/02/11 07:25:27;;;;;;;7.50;2.75;;;2.00;72.30;;;;;;5039216;28;20124;-52
2022/02/11 07:27:53;;;;;;;5.78;2.40;;;2.10;72.50;;;;;;5039473;28;20060;-53
2022/02/11 07:30:20;;;;;;;6.80;2.85;;;2.10;72.30;;;;;;5039174;28;20018;-52
2022/02/11 07:32:47;;;;;;;5.95;2.88;;;2.10;72.30;;;;;;5038942;28;20389;-52
2022/02/11 07:35:13;;;;;;;6.10;2.80;;;2.10;72.10;;;;;;5039386;28;20477;-53
2022/02/11 07:37:39;;;;;;;5.07;2.42;;;2.10;72.30;;;;;;5039275;28;20033;-55
2022/02/11 07:40:05;;;;;;;6.30;2.45;;;2.10;72.00;;;;;;5038998;28;20022;-51
2022/02/11 07:42:33;;;;;;;8.82;5.40;;;2.10;72.30;;;;;;5038969;28;20022;-56
2022/02/11 07:44:59;;;;;;;14.75;9.18;;;2.10;72.10;;;;;;5039106;28;20034;-52
2022/02/11 07:47:28;;;;;;;7.65;4.80;;;2.10;71.90;;;;;;5038719;28;20030;-56
2022/02/11 07:49:55;;;;;;;6.10;3.22;;;2.10;72.10;;;;;;5038846;28;20447;-51
2022/02/11 07:52:21;;;;;;;5.70;2.90;;;2.10;72.40;;;;;;5038610;28;20033;-50
2022/02/11 07:54:47;;;;;;;6.97;3.10;;;2.10;72.20;;;;;;5038745;28;20029;-54
2022/02/11 07:57:13;;;;;;;6.93;2.88;;;2.10;72.50;;;;;;5038943;28;20055;-54
2022/02/11 07:59:39;;;;;;;5.70;2.80;;;2.10;72.40;;;;;;5038871;28;20030;-56
2022/02/11 08:02:05;;;;;;;9.75;5.75;;;2.20;72.40;;;;;;5038635;28;20037;-55
2022/02/11 08:04:32;;;;;;;8.82;5.25;;;2.20;72.80;;;;;;5038408;28;20018;-53
2022/02/11 08:06:58;;;;;;;9.90;5.47;;;2.20;73.00;;;;;;5038602;28;20033;-54
2022/02/11 08:09:24;;;;;;;10.18;6.05;;;2.20;72.60;;;;;;5038430;28;20029;-52
2022/02/11 08:11:50;;;;;;;12.52;6.03;;;2.30;72.90;;;;;;5038232;28;20035;-51
2022/02/11 08:14:16;;;;;;;10.93;6.03;;;2.30;72.20;;;;;;5038389;28;20072;-49
2022/02/11 08:16:42;;;;;;;8.35;3.90;;;2.40;72.30;;;;;;5038669;28;20073;-51
2022/02/11 08:19:07;;;;;;;7.32;4.88;;;2.40;72.10;;;;;;5038293;28;20028;-52
2022/02/11 08:21:36;;;;;;;8.73;4.68;;;2.40;72.30;;;;;;5038463;28;20481;-52
2022/02/11 08:24:02;;;;;;;6.72;3.10;;;2.50;72.00;;;;;;5038165;28;20021;-50
2022/02/11 08:26:29;;;;;;;8.00;4.18;;;2.50;72.80;;;;;;5038135;28;20057;-54
2022/02/11 08:28:58;;;;;;;9.85;5.82;;;2.60;72.80;;;;;;5038026;28;20144;-51
2022/02/11 08:31:24;;;;;;;9.02;4.80;;;2.70;72.90;;;;;;5038325;28;20030;-53
2022/02/11 08:33:51;;;;;;;8.40;4.82;;;2.70;73.30;;;;;;5038337;28;20022;-55
2022/02/11 08:36:19;;;;;;;8.13;4.28;;;2.80;73.00;;;;;;5038229;28;20032;-53
2022/02/11 08:38:45;;;;;;;10.23;4.45;;;2.80;73.10;;;;;;5037285;28;20025;-55
2022/02/11 08:41:11;;;;;;;8.95;4.68;;;2.90;73.70;;;;;;5037950;28;20077;-55
2022/02/11 08:43:37;;;;;;;13.07;6.88;;;3.00;73.10;;;;;;5037848;28;20052;-50
2022/02/11 08:46:04;;;;;;;7.97;4.88;;;3.10;72.90;;;;;;5037046;28;20040;-53
2022/02/11 08:48:30;;;;;;;9.30;5.07;;;3.30;73.30;;;;;;5036451;28;20500;-55
2022/02/11 08:50:56;;;;;;;10.70;5.70;;;3.40;74.00;;;;;;5037821;28;20021;-54
2022/02/11 08:53:23;;;;;;;8.48;5.63;;;3.60;73.20;;;;;;5037792;28;20029;-53
2022/02/11 08:55:49;;;;;;;11.75;9.00;;;3.70;73.00;;;;;;5037960;28;20037;-54
2022/02/11 08:58:19;;;;;;;12.48;8.98;;;3.90;73.50;;;;;;5037816;28;20100;-54
2022/02/11 09:00:48;;;;;;;11.52;7.43;;;4.20;73.70;;;;;;5037652;28;20401;-52
2022/02/11 09:03:15;;;;;;;10.98;5.75;;;4.60;74.40;;;;;;5037674;28;20083;-53
2022/02/11 09:05:42;;;;;;;10.70;5.50;;;5.00;74.00;;;;;;5037749;28;20029;-52
2022/02/11 09:08:09;;;;;;;10.75;4.97;;;5.30;72.90;;;;;;5037795;28;20049;-53
2022/02/11 09:10:35;;;;;;;7.82;4.15;;;5.50;72.50;;;;;;5037436;28;20452;-53
2022/02/11 09:13:02;;;;;;;9.68;3.90;;;5.50;72.60;;;;;;5037836;28;20066;-56
2022/02/11 09:15:29;;;;;;;7.70;4.28;;;5.80;72.80;;;;;;5037637;28;20033;-52
2022/02/11 09:17:55;;;;;;;7.55;3.83;;;6.00;72.50;;;;;;5037480;28;20021;-53
2022/02/11 09:20:23;;;;;;;9.57;5.03;;;6.10;72.10;;;;;;5037168;28;20057;-54
2022/02/11 09:22:50;;;;;;;8.10;4.45;;;6.30;73.10;;;;;;5037719;28;20021;-55
2022/02/11 09:25:17;;;;;;;11.48;7.03;;;6.60;72.40;;;;;;5037426;28;20025;-53
2022/02/11 09:27:44;;;;;;;9.88;5.30;;;7.00;72.70;;;;;;5036170;28;20026;-56
2022/02/11 09:30:15;;;;;;;6.65;3.50;;;7.20;71.90;;;;;;5037538;28;20025;-54
2022/02/11 09:32:45;;;;;;;7.90;3.17;;;7.40;71.30;;;;;;5037427;28;20052;-56
2022/02/11 09:35:11;;;;;;;9.27;3.97;;;7.50;71.30;;;;;;5037450;28;20029;-55
2022/02/11 09:37:38;;;;;;;8.80;3.70;;;7.60;71.60;;;;;;5037381;28;20035;-55
2022/02/11 09:40:09;;;;;;;7.85;3.58;;;7.80;71.50;;;;;;5037189;28;20489;-54
2022/02/11 09:42:36;;;;;;;7.10;3.10;;;8.00;71.40;;;;;;5041125;28;20022;-56
2022/02/11 09:45:03;;;;;;;8.07;3.22;;;8.10;70.70;;;;;;5041041;28;20029;-57
2022/02/11 09:47:29;;;;;;;8.70;3.40;;;8.20;70.90;;;;;;5041169;28;20021;-50
2022/02/11 09:49:55;;;;;;;8.77;3.50;;;8.40;71.70;;;;;;5041357;28;20025;-55
2022/02/11 09:52:21;;;;;;;6.40;3.50;;;8.60;71.10;;;;;;5041274;28;20069;-56
2022/02/11 09:54:47;;;;;;;8.75;3.40;;;8.90;70.50;;;;;;5041054;28;20036;-54
2022/02/11 09:57:15;;;;;;;7.88;3.45;;;9.20;70.50;;;;;;5041393;28;20424;-53
2022/02/11 09:59:41;;;;;;;12.40;4.03;;;9.50;70.00;;;;;;5040746;28;20037;-54
2022/02/11 10:02:07;;;;;;;12.27;4.03;;;9.90;71.70;;;;;;5040882;28;20037;-51
2022/02/11 10:04:33;;;;;;;10.38;3.92;;;10.20;68.80;;;;;;5040049;28;20400;-55
2022/02/11 10:07:00;;;;;;;7.82;3.38;;;10.60;69.10;;;;;;5040930;28;20108;-57
2022/02/11 10:09:28;;;;;;;8.30;3.60;;;11.10;70.60;;;;;;5040985;28;20351;-58
2022/02/11 10:11:54;;;;;;;8.93;3.40;;;11.90;66.70;;;;;;5041002;28;20029;-57
2022/02/11 10:14:25;;;;;;;8.65;3.13;;;12.80;67.80;;;;;;5040954;28;20485;-58
2022/02/11 10:17:01;;;;;;;10.50;3.72;;;13.70;66.70;;;;;;5040542;28;20028;-57
2022/02/11 10:19:49;;;;;;;9.82;3.35;;;14.60;66.00;;;;;;5040809;28;20036;-57
2022/02/11 10:22:21;;;;;;;6.93;2.95;;;15.30;65.20;;;;;;5040276;28;20461;-59
2022/02/11 10:24:48;;;;;;;10.18;3.50;;;15.70;61.50;;;;;;5040396;28;20026;-59
2022/02/11 10:27:21;;;;;;;9.35;2.97;;;16.10;65.20;;;;;;5040618;28;20026;-59
2022/02/11 10:29:48;;;;;;;7.53;3.25;;;16.60;61.50;;;;;;5039556;28;20025;-59
2022/02/11 10:32:14;;;;;;;9.00;3.03;;;17.00;60.30;;;;;;5038158;28;20032;-59
2022/02/11 10:34:40;;;;;;;10.00;3.50;;;17.40;60.40;;;;;;5039168;28;20484;-59
2022/02/11 10:37:10;;;;;;;7.70;2.92;;;17.80;54.00;;;;;;5039742;28;20033;-59
2022/02/11 10:39:37;;;;;;;7.22;2.78;;;18.10;58.60;;;;;;5039831;28;20057;-59
2022/02/11 10:42:11;;;;;;;7.35;3.10;;;18.30;57.20;;;;;;5039927;28;20041;-59
2022/02/11 10:44:42;;;;;;;;;;;18.60;57.00;;;;;;5040072;28;20040;-59
2022/02/11 10:47:11;;;;;;;7.53;3.20;;;19.20;61.20;;;;;;5039938;28;19963;-59
2022/02/11 10:49:38;;;;;;;8.27;3.40;;;19.70;54.60;;;;;;5040254;28;20022;-59
2022/02/11 10:52:19;;;;;;;7.85;3.53;;;19.90;49.50;;;;;;5040022;28;20032;-59
2022/02/11 10:54:51;;;;;;;9.50;2.78;;;20.00;51.90;;;;;;5040185;28;20381;-59
2022/02/11 10:57:21;;;;;;;7.57;2.92;;;20.30;46.70;;;;;;5039695;28;20065;-59
2022/02/11 10:59:48;;;;;;;9.50;2.78;;;20.70;54.90;;;;;;5039884;28;20033;-59
2022/02/11 11:02:17;;;;;;;6.72;2.10;;;21.10;54.10;;;;;;5039894;28;20029;-59
2022/02/11 11:04:51;;;;;;;8.48;1.83;;;21.20;53.80;;;;;;5039656;28;20061;-59
2022/02/11 11:07:27;;;;;;;6.50;1.75;;;21.20;49.80;;;;;;5039840;28;20188;-59
2022/02/11 11:09:55;;;;;;;6.93;1.65;;;21.00;48.90;;;;;;5039657;28;20033;-59
2022/02/11 11:12:26;;;;;;;6.07;1.50;;;20.60;44.90;;;;;;5039814;28;20105;-59
2022/02/11 11:14:59;;;;;;;5.55;1.45;;;20.40;45.60;;;;;;5039145;28;20547;-59
2022/02/11 11:17:25;;;;;;;6.97;1.70;;;20.40;48.00;;;;;;5039453;28;20132;-59
2022/02/11 11:19:54;;;;;;;7.13;1.42;;;20.40;46.60;;;;;;5039352;28;20461;-59
2022/02/11 11:22:37;;;;;;;7.80;2.33;;;20.20;45.70;;;;;;5039662;28;20030;-59
2022/02/11 11:25:08;;;;;;;10.00;1.70;;;20.20;42.90;;;;;;5039468;28;20363;-59
2022/02/11 11:27:44;;;;;;;7.07;1.40;;;19.80;45.20;;;;;;5039146;28;20026;-59
2022/02/11 11:30:29;;;;;;;7.43;1.90;;;19.60;45.00;;;;;;5039300;28;20057;-59
2022/02/11 11:33:07;;;;;;;6.75;1.60;;;19.40;43.20;;;;;;5039121;28;20056;-59
2022/02/11 11:35:34;;;;;;;7.65;2.00;;;19.70;43.30;;;;;;5039137;28;20025;-59
2022/02/11 11:38:13;;;;;;;6.57;1.98;;;19.80;46.60;;;;;;5039894;28;20060;-59
2022/02/11 11:40:55;;;;;;;6.68;1.35;;;19.90;44.00;;;;;;5039098;28;20037;-59
2022/02/11 11:43:33;;;;;;;6.85;1.63;;;20.30;47.70;;;;;;5039231;28;20026;-59
2022/02/11 11:46:16;;;;;;;6.88;1.50;;;20.60;43.20;;;;;;5039271;28;20033;-59
2022/02/11 11:49:00;;;;;;;6.82;1.85;;;20.40;39.40;;;;;;5038920;28;20478;-59
2022/02/11 11:51:48;;;;;;;6.55;1.58;;;20.40;44.00;;;;;;5038920;28;20091;-59
2022/02/11 11:54:19;;;;;;;5.38;1.55;;;20.20;41.90;;;;;;5038249;28;20040;-59
2022/02/11 11:57:01;;;;;;;5.88;1.58;;;20.20;43.70;;;;;;5038842;28;20025;-59
2022/02/11 11:59:47;;;;;;;5.97;1.55;;;20.60;43.10;;;;;;5039113;28;20025;-59
2022/02/11 12:02:25;;;;;;;7.88;2.42;;;21.00;43.40;;;;;;5038989;28;20048;-59
2022/02/11 12:04:58;;;;;;;7.85;2.03;;;21.20;42.90;;;;;;5038256;28;20083;-59
2022/02/11 12:07:26;;;;;;;8.30;1.80;;;21.10;44.30;;;;;;5038814;28;20029;-59
2022/02/11 12:09:55;;;;;;;6.95;1.73;;;21.40;43.90;;;;;;5038741;28;20026;-59
2022/02/11 12:12:23;;;;;;;8.52;2.40;;;21.30;42.30;;;;;;5038420;28;20025;-59
2022/02/11 12:14:53;;;;;;;6.63;2.10;;;20.60;40.40;;;;;;5038464;28;20029;-59
2022/02/11 12:17:20;;;;;;;7.05;1.48;;;19.90;42.40;;;;;;5038590;28;20029;-59
2022/02/11 12:19:47;;;;;;;7.55;1.50;;;19.30;42.80;;;;;;5038219;28;20036;-59
2022/02/11 12:22:15;;;;;;;6.55;2.08;;;19.00;41.00;;;;;;5038481;28;20102;-58
2022/02/11 12:27:31;;;;;;;7.85;1.90;;;18.50;43.70;;;;;;5038410;28;20064;-58
2022/02/11 12:30:14;;;;;;;6.97;1.80;;;18.40;43.20;;;;;;5038182;28;20029;-58
2022/02/11 12:32:43;;;;;;;6.85;2.00;;;17.90;40.10;;;;;;5038546;28;20056;-59
2022/02/11 12:35:29;;;;;;;7.45;1.63;;;17.70;44.20;;;;;;5038273;28;20060;-58
2022/02/11 12:37:58;;;;;;;6.25;2.00;;;17.50;42.30;;;;;;5038082;28;20018;-58
2022/02/11 12:40:30;;;;;;;6.93;1.92;;;17.40;44.30;;;;;;5037963;28;20025;-59
2022/02/11 12:42:59;;;;;;;6.15;1.70;;;17.30;43.60;;;;;;5037737;28;20034;-59
2022/02/11 12:45:28;;;;;;;6.38;1.85;;;17.50;46.80;;;;;;5037655;28;20041;-58
2022/02/11 12:47:53;;;;;;;7.97;1.77;;;17.60;45.90;;;;;;5037483;28;20018;-59
2022/02/11 12:50:21;;;;;;;6.40;1.83;;;17.60;46.50;;;;;;5037493;28;20473;-58
2022/02/11 12:52:49;;;;;;;5.88;2.03;;;17.40;43.30;;;;;;5037593;28;20022;-58
2022/02/11 12:55:22;;;;;;;8.57;2.67;;;17.30;45.30;;;;;;5037765;28;20085;-59
2022/02/11 12:58:01;;;;;;;6.93;2.20;;;17.30;43.90;;;;;;5037805;28;20030;-58
2022/02/11 13:00:32;;;;;;;9.00;2.28;;;17.00;42.70;;;;;;5037841;28;20033;-58
2022/02/11 13:03:01;;;;;;;9.07;2.00;;;16.60;44.20;;;;;;5038114;28;20028;-57
2022/02/11 13:05:29;;;;;;;11.30;1.88;;;16.20;41.90;;;;;;5037686;28;20045;-57
2022/02/11 13:07:57;;;;;;;5.00;1.55;;;16.10;44.30;;;;;;5038050;28;20071;-58
2022/02/11 13:10:29;;;;;;;9.07;2.00;;;15.90;45.00;;;;;;5037847;28;20032;-58
2022/02/11 13:13:00;;;;;;;7.82;1.58;;;15.90;44.10;;;;;;5037995;28;20473;-58
2022/02/11 13:15:32;;;;;;;8.18;2.40;;;16.00;45.20;;;;;;5037574;28;20034;-58
2022/02/11 13:18:18;;;;;;;7.53;1.95;;;16.20;45.90;;;;;;5041833;28;20043;-58
2022/02/11 13:20:54;;;;;;;9.80;1.90;;;16.40;43.90;;;;;;5041557;28;20099;-57
2022/02/11 13:23:23;;;;;;;9.00;2.20;;;16.30;43.50;;;;;;5041706;28;20029;-58
2022/02/11 13:25:55;;;;;;;7.72;1.65;;;16.40;44.00;;;;;;5041520;28;20396;-58
2022/02/11 13:28:22;;;;;;;9.23;2.58;;;16.20;43.40;;;;;;5041574;28;20028;-58
2022/02/11 13:30:57;;;;;;;5.43;1.77;;;16.30;43.20;;;;;;5041517;28;20048;-57
2022/02/11 13:33:24;;;;;;;;;;;16.30;45.30;;;;;;5042115;28;20017;-58
2022/02/11 13:35:52;;;;;;;9.45;1.75;;;16.20;44.40;;;;;;5041497;28;19905;-58
2022/02/11 13:38:32;;;;;;;11.07;1.92;;;16.00;43.80;;;;;;5041573;28;20030;-58
2022/02/11 13:41:07;;;;;;;7.65;1.92;;;15.90;45.20;;;;;;5041497;28;20468;-58
2022/02/11 13:43:48;;;;;;;7.50;2.17;;;15.70;44.40;;;;;;5041225;28;20033;-57
2022/02/11 13:46:30;;;;;;;7.72;2.30;;;15.70;44.60;;;;;;5041157;28;20477;-58
2022/02/11 13:49:04;;;;;;;8.50;1.90;;;15.40;44.80;;;;;;5041364;28;20030;-57
2022/02/11 13:51:31;;;;;;;7.03;1.80;;;15.40;46.50;;;;;;5041314;28;20072;-56
2022/02/11 13:53:57;;;;;;;5.10;1.80;;;15.20;47.40;;;;;;5040850;28;20037;-58
2022/02/11 13:56:40;;;;;;;5.05;1.63;;;15.30;45.50;;;;;;5040962;28;20029;-58
2022/02/11 13:59:10;;;;;;;6.00;1.90;;;15.30;46.20;;;;;;5041160;28;20029;-57
2022/02/11 14:01:46;;;;;;;10.35;2.40;;;15.30;46.80;;;;;;5041053;28;20018;-58
2022/02/11 14:04:24;;;;;;;6.05;1.98;;;15.10;46.60;;;;;;5041048;28;20045;-57
2022/02/11 14:06:52;;;;;;;10.27;2.13;;;15.00;47.40;;;;;;5041016;28;20105;-57
2022/02/11 14:09:35;;;;;;;8.63;1.67;;;14.60;46.40;;;;;;5040617;28;20501;-57
2022/02/11 14:12:02;;;;;;;7.18;1.90;;;14.40;48.10;;;;;;5040784;28;20021;-57
2022/02/11 14:14:29;;;;;;;8.30;2.38;;;14.30;48.10;;;;;;5040515;28;20418;-58
2022/02/11 14:16:58;;;;;;;6.88;2.22;;;14.50;50.30;;;;;;5040863;28;20040;-57
2022/02/11 14:19:24;;;;;;;6.75;1.70;;;14.90;48.50;;;;;;5040439;28;20056;-55
2022/02/11 14:21:58;;;;;;;9.55;2.05;;;15.30;47.80;;;;;;5040213;28;20047;-55
2022/02/11 14:24:25;;;;;;;8.50;1.95;;;15.60;47.40;;;;;;5040816;28;20109;-58
2022/02/11 14:26:52;;;;;;;7.78;2.38;;;15.70;45.80;;;;;;5039902;28;20048;-56
2022/02/11 14:29:18;;;;;;;5.82;1.70;;;15.70;45.20;;;;;;5040481;28;20029;-57
2022/02/11 14:31:45;;;;;;;6.05;2.22;;;15.70;46.00;;;;;;5039102;28;20021;-56
2022/02/11 14:34:12;;;;;;;7.68;1.80;;;16.00;46.80;;;;;;5040347;28;20029;-57
2022/02/11 14:36:40;;;;;;;9.85;2.10;;;16.10;45.60;;;;;;5040329;28;20036;-58
2022/02/11 14:39:06;;;;;;;6.18;2.03;;;16.20;45.00;;;;;;5040276;28;20028;-56
2022/02/11 14:41:48;;;;;;;7.68;2.38;;;15.90;43.80;;;;;;5040248;28;20104;-57
2022/02/11 14:44:15;;;;;;;5.90;1.98;;;15.70;44.80;;;;;;5040156;28;20085;-56
2022/02/11 14:46:41;;;;;;;6.90;2.08;;;15.40;46.40;;;;;;5040257;28;20032;-57
2022/02/11 14:49:07;;;;;;;8.25;2.13;;;15.00;45.20;;;;;;5040247;28;20121;-55
2022/02/11 14:51:36;;;;;;;8.60;2.17;;;14.60;46.70;;;;;;5040111;28;20033;-56
2022/02/11 14:54:08;;;;;;;7.43;1.98;;;14.50;48.80;;;;;;5039946;28;20049;-56
2022/02/11 14:56:35;;;;;;;7.38;1.92;;;14.40;47.70;;;;;;5039973;28;20017;-56
2022/02/11 14:59:01;;;;;;;8.00;1.90;;;14.10;46.80;;;;;;5040087;28;20021;-56
2022/02/11 15:01:27;;;;;;;9.55;1.95;;;13.90;49.30;;;;;;5039853;28;20104;-55
2022/02/11 15:03:52;;;;;;;8.68;2.03;;;13.80;48.70;;;;;;5040214;28;20064;-58
2022/02/11 15:06:18;;;;;;;6.88;1.98;;;13.70;48.70;;;;;;5039822;28;20052;-57
2022/02/11 15:08:45;;;;;;;8.52;2.38;;;13.40;49.40;;;;;;5039709;28;20025;-57
2022/02/11 15:11:12;;;;;;;8.88;2.25;;;13.20;49.80;;;;;;5039873;28;20041;-57
2022/02/11 15:13:39;;;;;;;8.60;2.50;;;13.20;50.10;;;;;;5039957;28;20024;-57
2022/02/11 15:16:05;;;;;;;7.72;1.52;;;12.90;49.80;;;;;;5039567;28;20026;-58
2022/02/11 15:18:31;;;;;;;8.38;2.00;;;12.70;50.60;;;;;;5039600;28;20075;-58
2022/02/11 15:21:05;;;;;;;6.90;1.95;;;12.60;51.30;;;;;;5039338;28;20045;-57
2022/02/11 15:23:35;;;;;;;12.23;2.10;;;12.60;51.50;;;;;;5039506;28;20034;-57
2022/02/11 15:26:02;;;;;;;6.47;1.63;;;12.40;51.70;;;;;;5039690;28;20030;-57
2022/02/11 15:28:33;;;;;;;6.22;1.80;;;12.30;51.80;;;;;;5039420;28;20021;-57
2022/02/11 15:30:59;;;;;;;9.25;1.85;;;12.10;51.90;;;;;;5039237;28;20034;-57
2022/02/11 15:33:25;;;;;;;4.32;1.67;;;12.00;51.90;;;;;;5038900;28;20101;-56
2022/02/11 15:35:51;;;;;;;7.32;1.90;;;11.80;52.40;;;;;;5039158;28;20040;-56
2022/02/11 15:38:17;;;;;;;10.27;2.15;;;11.80;52.70;;;;;;5038714;28;20489;-56
2022/02/11 15:40:43;;;;;;;9.30;1.83;;;11.70;52.70;;;;;;5038957;28;20821;-55
2022/02/11 15:43:09;;;;;;;11.32;2.30;;;11.70;52.50;;;;;;5038937;28;20489;-55
2022/02/11 15:45:35;;;;;;;5.07;1.90;;;11.60;53.00;;;;;;5038341;28;20022;-58
2022/02/11 15:48:00;;;;;;;7.13;1.88;;;11.50;52.60;;;;;;5038285;28;20504;-58
2022/02/11 15:50:27;;;;;;;9.48;2.22;;;11.30;52.40;;;;;;5038629;28;20061;-56
2022/02/11 15:52:52;;;;;;;9.02;2.55;;;11.20;52.80;;;;;;5038284;28;20028;-57
2022/02/11 15:55:19;;;;;;;6.35;2.22;;;11.10;53.00;;;;;;5038148;28;20057;-57
2022/02/11 15:57:45;;;;;;;8.60;1.80;;;10.90;53.40;;;;;;5038550;28;20025;-57
2022/02/11 16:00:12;;;;;;;6.63;1.63;;;10.90;53.60;;;;;;5038576;28;20033;-58
2022/02/11 16:02:39;;;;;;;8.27;1.95;;;10.80;54.10;;;;;;5038129;28;20040;-56
2022/02/11 16:05:06;;;;;;;7.38;2.10;;;10.70;53.80;;;;;;5038219;28;20033;-55
2022/02/11 16:07:32;;;;;;;6.88;1.85;;;10.70;54.10;;;;;;5038531;28;20029;-57
2022/02/11 16:09:59;;;;;;;6.80;1.58;;;10.60;54.20;;;;;;5038173;28;20025;-56
2022/02/11 16:12:26;;;;;;;6.55;1.70;;;10.50;54.50;;;;;;5038189;28;20028;-54
2022/02/11 16:14:52;;;;;;;10.05;1.90;;;10.40;54.30;;;;;;5037971;28;20492;-53
2022/02/11 16:17:18;;;;;;;4.95;1.73;;;10.30;54.70;;;;;;5038071;28;20057;-56
2022/02/11 16:19:44;;;;;;;6.72;1.70;;;10.30;54.70;;;;;;5037954;28;20033;-55
2022/02/11 16:22:11;;;;;;;4.53;1.90;;;10.20;55.30;;;;;;5037946;28;20052;-57
2022/02/11 16:24:37;;;;;;;8.27;1.63;;;10.20;55.20;;;;;;5037763;28;20489;-55
2022/02/11 16:27:04;;;;;;;6.80;1.42;;;10.20;55.50;;;;;;5037635;28;20048;-55
2022/02/11 16:29:34;;;;;;;9.80;1.95;;;10.10;55.20;;;;;;5038019;28;20373;-57
2022/02/11 16:32:06;;;;;;;8.00;1.80;;;10.10;55.80;;;;;;5037718;28;20029;-57
2022/02/11 16:34:32;;;;;;;7.82;1.88;;;10.10;55.40;;;;;;5037922;28;20071;-55
2022/02/11 16:36:58;;;;;;;8.90;1.90;;;10.00;55.50;;;;;;5037749;28;20037;-57
2022/02/11 16:39:24;;;;;;;8.68;2.63;;;10.00;55.90;;;;;;5037944;28;20072;-57
2022/02/11 16:41:50;;;;;;;5.60;2.45;;;9.90;56.30;;;;;;5037895;28;20033;-56
2022/02/11 16:44:18;;;;;;;8.20;2.70;;;9.90;56.50;;;;;;5037753;28;20056;-55
2022/02/11 16:46:45;;;;;;;7.13;2.25;;;9.90;56.70;;;;;;5037590;28;20048;-55
2022/02/11 16:49:13;;;;;;;6.60;1.85;;;9.90;56.30;;;;;;5037949;28;20059;-55
2022/02/11 16:51:43;;;;;;;4.63;1.50;;;9.90;56.50;;;;;;5037226;28;20036;-52
2022/02/11 16:54:09;;;;;;;10.15;1.77;;;9.90;57.00;;;;;;5037042;28;20060;-53
2022/02/11 16:56:35;;;;;;;6.93;1.75;;;9.80;56.80;;;;;;5037282;28;20025;-53
2022/02/11 16:59:01;;;;;;;8.77;1.65;;;9.80;56.20;;;;;;5037837;28;20025;-55
2022/02/11 17:01:27;;;;;;;9.15;2.88;;;9.80;56.70;;;;;;5037666;28;20033;-51
2022/02/11 17:03:53;;;;;;;5.75;1.67;;;9.70;56.80;;;;;;5037793;28;20105;-55
2022/02/11 17:06:19;;;;;;;7.45;2.05;;;9.70;56.90;;;;;;5037600;28;20028;-54
2022/02/11 17:08:45;;;;;;;7.38;2.38;;;9.70;56.90;;;;;;5036241;28;20497;-53